sensor_id;sensor_type;location;lat;lon;timestamp;temperature;humidity
55329;DHT22;41205;44.264;19.884;2024-02-23T00:00:12;333.40;1843.20
55329;DHT22;41205;44.264;19.884;2024-02-23T00:02:38;333.20;1843.20
55329;DHT22;41205;44.264;19.884;2024-02-23T00:05:04;333.40;1843.20
55329;DHT22;41205;44.264;19.884;2024-02-23T00:07:30;333.10;1843.20
55329;DHT22;41205;44.264;19.884;2024-02-23T00:09:56;333.50;1843.20
55329;DHT22;41205;44.264;19.884;2024-02-23T00:12:21;333.50;1843.20
55329;DHT22;41205;44.264;19.884;2024-02-23T00:14:47;333.50;1868.80
55329;DHT22;41205;44.264;19.884;2024-02-23T00:17:13;333.40;1868.80
55329;DHT22;41205;44.264;19.884;2024-02-23T00:19:39;333.40;1843.20
55329;DHT22;41205;44.264;19.884;2024-02-23T00:22:05;333.50;1868.80
55329;DHT22;41205;44.264;19.884;2024-02-23T00:24:30;333.50;1843.20
55329;DHT22;41205;44.264;19.884;2024-02-23T00:26:56;333.50;1843.20
55329;DHT22;41205;44.264;19.884;2024-02-23T00:29:22;333.70;1817.60
55329;DHT22;41205;44.264;19.884;2024-02-23T00:31:49;333.60;1843.20
55329;DHT22;41205;44.264;19.884;2024-02-23T00:34:15;333.70;1843.20
55329;DHT22;41205;44.264;19.884;2024-02-23T00:36:41;333.70;1843.20
55329;DHT22;41205;44.264;19.884;2024-02-23T00:39:08;333.70;1843.20
55329;DHT22;41205;44.264;19.884;2024-02-23T00:41:34;333.70;1843.20
55329;DHT22;41205;44.264;19.884;2024-02-23T00:44:00;333.60;1843.20
55329;DHT22;41205;44.264;19.884;2024-02-23T00:46:26;333.60;1843.20
55329;DHT22;41205;44.264;19.884;2024-02-23T00:48:52;333.60;1868.80
55329;DHT22;41205;44.264;19.884;2024-02-23T00:51:17;333.60;1868.80
55329;DHT22;41205;44.264;19.884;2024-02-23T00:53:43;333.60;1868.80
55329;DHT22;41205;44.264;19.884;2024-02-23T00:56:09;333.60;1868.80
55329;DHT22;41205;44.264;19.884;2024-02-23T00:58:35;333.50;1868.80
55329;DHT22;41205;44.264;19.884;2024-02-23T01:01:00;333.50;1868.80
55329;DHT22;41205;44.264;19.884;2024-02-23T01:03:26;333.50;1868.80
55329;DHT22;41205;44.264;19.884;2024-02-23T01:05:52;333.50;1894.40
55329;DHT22;41205;44.264;19.884;2024-02-23T01:08:18;333.50;1868.80
55329;DHT22;41205;44.264;19.884;2024-02-23T01:10:44;333.50;1894.40
55329;DHT22;41205;44.264;19.884;2024-02-23T01:13:10;333.50;1868.80
55329;DHT22;41205;44.264;19.884;2024-02-23T01:15:36;333.50;1868.80
55329;DHT22;41205;44.264;19.884;2024-02-23T01:18:03;333.50;1894.40
55329;DHT22;41205;44.264;19.884;2024-02-23T01:20:29;333.60;1894.40
55329;DHT22;41205;44.264;19.884;2024-02-23T01:22:55;333.50;1894.40
55329;DHT22;41205;44.264;19.884;2024-02-23T01:25:20;333.50;1894.40
55329;DHT22;41205;44.264;19.884;2024-02-23T01:27:46;333.60;1894.40
55329;DHT22;41205;44.264;19.884;2024-02-23T01:30:12;333.60;1894.40
55329;DHT22;41205;44.264;19.884;2024-02-23T01:32:38;333.60;1894.40
55329;DHT22;41205;44.264;19.884;2024-02-23T01:35:05;333.60;1894.40
55329;DHT22;41205;44.264;19.884;2024-02-23T01:37:32;333.50;1920.00
55329;DHT22;41205;44.264;19.884;2024-02-23T01:39:59;333.50;1920.00
55329;DHT22;41205;44.264;19.884;2024-02-23T01:42:25;333.60;1920.00
55329;DHT22;41205;44.264;19.884;2024-02-23T01:44:51;333.50;1920.00
55329;DHT22;41205;44.264;19.884;2024-02-23T01:47:18;333.50;1920.00
55329;DHT22;41205;44.264;19.884;2024-02-23T01:49:46;333.40;1920.00
55329;DHT22;41205;44.264;19.884;2024-02-23T01:52:13;333.50;1920.00
55329;DHT22;41205;44.264;19.884;2024-02-23T01:54:40;333.50;1920.00
55329;DHT22;41205;44.264;19.884;2024-02-23T01:57:07;333.50;1920.00
55329;DHT22;41205;44.264;19.884;2024-02-23T01:59:36;333.50;1920.00
55329;DHT22;41205;44.264;19.884;2024-02-23T02:02:03;333.50;1894.40
55329;DHT22;41205;44.264;19.884;2024-02-23T02:04:29;333.50;1920.00
55329;DHT22;41205;44.264;19.884;2024-02-23T02:06:57;333.50;1920.00
55329;DHT22;41205;44.264;19.884;2024-02-23T02:09:23;333.50;1945.60
55329;DHT22;41205;44.264;19.884;2024-02-23T02:11:50;333.40;1945.60
55329;DHT22;41205;44.264;19.884;2024-02-23T02:14:16;333.50;1920.00
55329;DHT22;41205;44.264;19.884;2024-02-23T02:16:42;333.50;1945.60
55329;DHT22;41205;44.264;19.884;2024-02-23T02:19:10;333.50;1920.00
55329;DHT22;41205;44.264;19.884;2024-02-23T02:21:36;333.50;1920.00
55329;DHT22;41205;44.264;19.884;2024-02-23T02:24:02;333.50;1920.00
55329;DHT22;41205;44.264;19.884;2024-02-23T02:26:29;333.50;1920.00
55329;DHT22;41205;44.264;19.884;2024-02-23T02:28:55;333.50;1945.60
55329;DHT22;41205;44.264;19.884;2024-02-23T02:31:20;333.50;1945.60
55329;DHT22;41205;44.264;19.884;2024-02-23T02:33:46;333.50;1945.60
55329;DHT22;41205;44.264;19.884;2024-02-23T02:36:12;333.50;1945.60
55329;DHT22;41205;44.264;19.884;2024-02-23T02:38:38;333.50;1945.60
55329;DHT22;41205;44.264;19.884;2024-02-23T02:41:04;333.60;1945.60
55329;DHT22;41205;44.264;19.884;2024-02-23T02:43:30;333.60;1920.00
55329;DHT22;41205;44.264;19.884;2024-02-23T02:45:56;333.70;1920.00
55329;DHT22;41205;44.264;19.884;2024-02-23T02:48:23;333.60;1945.60
55329;DHT22;41205;44.264;19.884;2024-02-23T02:50:49;333.60;1920.00
55329;DHT22;41205;44.264;19.884;2024-02-23T02:53:15;333.70;1920.00
55329;DHT22;41205;44.264;19.884;2024-02-23T02:55:42;333.60;1945.60
55329;DHT22;41205;44.264;19.884;2024-02-23T02:58:09;358.40;1945.60
55329;DHT22;41205;44.264;19.884;2024-02-23T03:00:35;333.60;1945.60
55329;DHT22;41205;44.264;19.884;2024-02-23T03:03:00;333.60;1945.60
55329;DHT22;41205;44.264;19.884;2024-02-23T03:05:26;333.60;1945.60
55329;DHT22;41205;44.264;19.884;2024-02-23T03:07:52;333.50;1971.20
55329;DHT22;41205;44.264;19.884;2024-02-23T03:10:18;333.50;1945.60
55329;DHT22;41205;44.264;19.884;2024-02-23T03:12:43;333.60;1945.60
55329;DHT22;41205;44.264;19.884;2024-02-23T03:15:09;333.60;1945.60
55329;DHT22;41205;44.264;19.884;2024-02-23T03:17:35;333.70;1945.60
55329;DHT22;41205;44.264;19.884;2024-02-23T03:20:02;333.70;1945.60
55329;DHT22;41205;44.264;19.884;2024-02-23T03:22:31;333.70;1945.60
55329;DHT22;41205;44.264;19.884;2024-02-23T03:24:56;333.70;1945.60
55329;DHT22;41205;44.264;19.884;2024-02-23T03:27:28;333.70;1945.60
55329;DHT22;41205;44.264;19.884;2024-02-23T03:29:54;333.70;1945.60
55329;DHT22;41205;44.264;19.884;2024-02-23T03:32:20;333.60;1945.60
55329;DHT22;41205;44.264;19.884;2024-02-23T03:34:46;333.60;1945.60
55329;DHT22;41205;44.264;19.884;2024-02-23T03:37:12;333.60;1945.60
55329;DHT22;41205;44.264;19.884;2024-02-23T03:39:38;333.60;1945.60
55329;DHT22;41205;44.264;19.884;2024-02-23T03:42:04;333.60;1945.60
55329;DHT22;41205;44.264;19.884;2024-02-23T03:44:29;333.20;1945.60
55329;DHT22;41205;44.264;19.884;2024-02-23T03:46:57;333.70;1945.60
55329;DHT22;41205;44.264;19.884;2024-02-23T03:49:22;333.70;1945.60
55329;DHT22;41205;44.264;19.884;2024-02-23T03:51:48;333.70;1945.60
55329;DHT22;41205;44.264;19.884;2024-02-23T03:54:14;333.70;1945.60
55329;DHT22;41205;44.264;19.884;2024-02-23T03:56:41;333.70;1945.60
55329;DHT22;41205;44.264;19.884;2024-02-23T03:59:07;333.70;1945.60
55329;DHT22;41205;44.264;19.884;2024-02-23T04:01:37;333.70;1945.60
55329;DHT22;41205;44.264;19.884;2024-02-23T04:04:03;333.70;1945.60
55329;DHT22;41205;44.264;19.884;2024-02-23T04:06:29;333.70;1945.60
55329;DHT22;41205;44.264;19.884;2024-02-23T04:08:55;333.70;1945.60
55329;DHT22;41205;44.264;19.884;2024-02-23T04:11:21;333.70;1945.60
55329;DHT22;41205;44.264;19.884;2024-02-23T04:13:47;333.70;1945.60
55329;DHT22;41205;44.264;19.884;2024-02-23T04:16:12;333.70;1945.60
55329;DHT22;41205;44.264;19.884;2024-02-23T04:18:38;333.70;1945.60
55329;DHT22;41205;44.264;19.884;2024-02-23T04:21:04;333.70;1945.60
55329;DHT22;41205;44.264;19.884;2024-02-23T04:23:30;333.70;1945.60
55329;DHT22;41205;44.264;19.884;2024-02-23T04:25:56;333.70;1945.60
55329;DHT22;41205;44.264;19.884;2024-02-23T04:28:21;333.60;1971.20
55329;DHT22;41205;44.264;19.884;2024-02-23T04:30:48;333.70;1971.20
55329;DHT22;41205;44.264;19.884;2024-02-23T04:33:14;333.60;1971.20
55329;DHT22;41205;44.264;19.884;2024-02-23T04:35:39;333.60;1971.20
55329;DHT22;41205;44.264;19.884;2024-02-23T04:38:05;333.60;1971.20
55329;DHT22;41205;44.264;19.884;2024-02-23T04:40:31;333.60;1971.20
55329;DHT22;41205;44.264;19.884;2024-02-23T04:42:56;333.60;1971.20
55329;DHT22;41205;44.264;19.884;2024-02-23T04:45:22;333.60;1971.20
55329;DHT22;41205;44.264;19.884;2024-02-23T04:47:48;333.60;1971.20
55329;DHT22;41205;44.264;19.884;2024-02-23T04:50:14;333.60;1971.20
55329;DHT22;41205;44.264;19.884;2024-02-23T04:52:40;333.60;1971.20
55329;DHT22;41205;44.264;19.884;2024-02-23T04:55:06;333.50;1971.20
55329;DHT22;41205;44.264;19.884;2024-02-23T04:57:32;333.50;1971.20
55329;DHT22;41205;44.264;19.884;2024-02-23T04:59:58;333.50;1971.20
55329;DHT22;41205;44.264;19.884;2024-02-23T05:02:24;333.50;1971.20
55329;DHT22;41205;44.264;19.884;2024-02-23T05:04:50;333.50;1971.20
55329;DHT22;41205;44.264;19.884;2024-02-23T05:07:15;333.60;1971.20
55329;DHT22;41205;44.264;19.884;2024-02-23T05:09:41;333.60;1971.20
55329;DHT22;41205;44.264;19.884;2024-02-23T05:12:08;333.70;1971.20
55329;DHT22;41205;44.264;19.884;2024-02-23T05:14:34;333.70;1945.60
55329;DHT22;41205;44.264;19.884;2024-02-23T05:16:59;333.70;1971.20
55329;DHT22;41205;44.264;19.884;2024-02-23T05:19:25;333.60;1971.20
55329;DHT22;41205;44.264;19.884;2024-02-23T05:21:51;333.60;2022.40
55329;DHT22;41205;44.264;19.884;2024-02-23T05:24:17;333.50;2048.00
55329;DHT22;41205;44.264;19.884;2024-02-23T05:26:43;333.50;2073.60
55329;DHT22;41205;44.264;19.884;2024-02-23T05:29:10;333.50;2099.20
55329;DHT22;41205;44.264;19.884;2024-02-23T05:31:53;333.50;2099.20
55329;DHT22;41205;44.264;19.884;2024-02-23T05:34:19;333.40;2124.80
55329;DHT22;41205;44.264;19.884;2024-02-23T05:36:45;333.40;2150.40
55329;DHT22;41205;44.264;19.884;2024-02-23T05:39:12;333.40;2176.00
55329;DHT22;41205;44.264;19.884;2024-02-23T05:41:38;333.40;2124.80
55329;DHT22;41205;44.264;19.884;2024-02-23T05:44:05;333.40;2124.80
55329;DHT22;41205;44.264;19.884;2024-02-23T05:46:42;358.50;2124.80
55329;DHT22;41205;44.264;19.884;2024-02-23T05:49:08;333.40;2124.80
55329;DHT22;41205;44.264;19.884;2024-02-23T05:51:34;333.30;2150.40
55329;DHT22;41205;44.264;19.884;2024-02-23T05:54:00;333.40;2176.00
55329;DHT22;41205;44.264;19.884;2024-02-23T05:56:26;333.30;2150.40
55329;DHT22;41205;44.264;19.884;2024-02-23T05:58:52;333.40;2124.80
55329;DHT22;41205;44.264;19.884;2024-02-23T06:01:18;333.50;2124.80
55329;DHT22;41205;44.264;19.884;2024-02-23T06:03:44;333.50;2099.20
55329;DHT22;41205;44.264;19.884;2024-02-23T06:06:10;333.50;2124.80
55329;DHT22;41205;44.264;19.884;2024-02-23T06:08:36;333.60;2099.20
55329;DHT22;41205;44.264;19.884;2024-02-23T06:11:03;333.70;2099.20
55329;DHT22;41205;44.264;19.884;2024-02-23T06:13:30;333.70;2124.80
55329;DHT22;41205;44.264;19.884;2024-02-23T06:15:56;333.70;2124.80
55329;DHT22;41205;44.264;19.884;2024-02-23T06:18:21;333.70;2124.80
55329;DHT22;41205;44.264;19.884;2024-02-23T06:20:49;333.70;2124.80
55329;DHT22;41205;44.264;19.884;2024-02-23T06:23:15;333.70;2124.80
55329;DHT22;41205;44.264;19.884;2024-02-23T06:25:41;333.70;2124.80
55329;DHT22;41205;44.264;19.884;2024-02-23T06:28:07;333.70;2073.60
55329;DHT22;41205;44.264;19.884;2024-02-23T06:30:32;333.70;2099.20
55329;DHT22;41205;44.264;19.884;2024-02-23T06:32:58;358.40;2073.60
55329;DHT22;41205;44.264;19.884;2024-02-23T06:35:24;358.40;2099.20
55329;DHT22;41205;44.264;19.884;2024-02-23T06:37:49;358.50;2099.20
55329;DHT22;41205;44.264;19.884;2024-02-23T06:40:15;358.50;2099.20
55329;DHT22;41205;44.264;19.884;2024-02-23T06:42:41;358.70;1996.80
55329;DHT22;41205;44.264;19.884;2024-02-23T06:45:07;358.70;2022.40
55329;DHT22;41205;44.264;19.884;2024-02-23T07:21:46;384.00;1945.60
55329;DHT22;41205;44.264;19.884;2024-02-23T07:24:12;384.00;1945.60
55329;DHT22;41205;44.264;19.884;2024-02-23T07:26:38;359.20;1945.60
55329;DHT22;41205;44.264;19.884;2024-02-23T07:31:30;384.20;1920.00
55329;DHT22;41205;44.264;19.884;2024-02-23T07:33:56;384.00;1945.60
55329;DHT22;41205;44.264;19.884;2024-02-23T07:36:21;384.00;1945.60
55329;DHT22;41205;44.264;19.884;2024-02-23T07:38:47;384.10;1945.60
55329;DHT22;41205;44.264;19.884;2024-02-23T07:41:14;384.20;1945.60
55329;DHT22;41205;44.264;19.884;2024-02-23T07:43:40;384.20;1945.60
55329;DHT22;41205;44.264;19.884;2024-02-23T07:46:06;384.20;1920.00
55329;DHT22;41205;44.264;19.884;2024-02-23T07:48:37;384.30;1920.00
55329;DHT22;41205;44.264;19.884;2024-02-23T07:51:05;384.40;1894.40
55329;DHT22;41205;44.264;19.884;2024-02-23T07:53:31;384.30;1920.00
55329;DHT22;41205;44.264;19.884;2024-02-23T07:55:58;384.30;1894.40
55329;DHT22;41205;44.264;19.884;2024-02-23T07:58:25;384.40;1894.40
55329;DHT22;41205;44.264;19.884;2024-02-23T08:00:53;384.20;1920.00
55329;DHT22;41205;44.264;19.884;2024-02-23T08:03:19;384.40;1920.00
55329;DHT22;41205;44.264;19.884;2024-02-23T08:05:45;384.40;1920.00
55329;DHT22;41205;44.264;19.884;2024-02-23T08:13:03;384.80;1868.80
55329;DHT22;41205;44.264;19.884;2024-02-23T08:15:29;384.70;1868.80
55329;DHT22;41205;44.264;19.884;2024-02-23T08:17:55;384.60;1894.40
55329;DHT22;41205;44.264;19.884;2024-02-23T08:20:21;384.60;1868.80
55329;DHT22;41205;44.264;19.884;2024-02-23T08:22:47;384.90;1843.20
55329;DHT22;41205;44.264;19.884;2024-02-23T08:25:13;384.90;1868.80
55329;DHT22;41205;44.264;19.884;2024-02-23T08:27:40;409.60;1894.40
55329;DHT22;41205;44.264;19.884;2024-02-23T08:30:06;409.60;1894.40
55329;DHT22;41205;44.264;19.884;2024-02-23T08:32:32;409.80;1894.40
55329;DHT22;41205;44.264;19.884;2024-02-23T08:34:58;409.70;1868.80
55329;DHT22;41205;44.264;19.884;2024-02-23T08:37:25;409.60;1894.40
55329;DHT22;41205;44.264;19.884;2024-02-23T08:39:52;409.80;1894.40
55329;DHT22;41205;44.264;19.884;2024-02-23T08:42:18;409.90;1868.80
55329;DHT22;41205;44.264;19.884;2024-02-23T08:44:44;410.00;1894.40
55329;DHT22;41205;44.264;19.884;2024-02-23T08:47:09;410.00;1868.80
55329;DHT22;41205;44.264;19.884;2024-02-23T08:49:35;410.10;1868.80
55329;DHT22;41205;44.264;19.884;2024-02-23T08:52:01;410.10;1843.20
55329;DHT22;41205;44.264;19.884;2024-02-23T08:54:27;410.20;1843.20
55329;DHT22;41205;44.264;19.884;2024-02-23T08:56:53;410.00;1817.60
55329;DHT22;41205;44.264;19.884;2024-02-23T08:59:19;410.00;1894.40
55329;DHT22;41205;44.264;19.884;2024-02-23T09:01:45;410.10;1843.20
55329;DHT22;41205;44.264;19.884;2024-02-23T09:04:15;410.10;1843.20
55329;DHT22;41205;44.264;19.884;2024-02-23T09:06:49;410.20;1792.00
55329;DHT22;41205;44.264;19.884;2024-02-23T09:09:16;410.10;1792.00
55329;DHT22;41205;44.264;19.884;2024-02-23T09:11:42;410.20;1792.00
55329;DHT22;41205;44.264;19.884;2024-02-23T09:14:07;410.20;1792.00
55329;DHT22;41205;44.264;19.884;2024-02-23T09:16:33;410.20;1792.00
55329;DHT22;41205;44.264;19.884;2024-02-23T09:18:59;410.30;1792.00
55329;DHT22;41205;44.264;19.884;2024-02-23T09:21:25;410.50;1792.00
55329;DHT22;41205;44.264;19.884;2024-02-23T09:23:50;410.50;1792.00
55329;DHT22;41205;44.264;19.884;2024-02-23T09:26:16;410.50;1766.40
55329;DHT22;41205;44.264;19.884;2024-02-23T09:28:43;410.50;1792.00
55329;DHT22;41205;44.264;19.884;2024-02-23T09:31:10;435.20;1766.40
55329;DHT22;41205;44.264;19.884;2024-02-23T09:33:36;435.30;1766.40
55329;DHT22;41205;44.264;19.884;2024-02-23T09:36:03;435.40;1792.00
55329;DHT22;41205;44.264;19.884;2024-02-23T09:38:28;435.50;1766.40
55329;DHT22;41205;44.264;19.884;2024-02-23T09:40:54;435.50;1740.80
55329;DHT22;41205;44.264;19.884;2024-02-23T09:43:21;435.60;1715.20
55329;DHT22;41205;44.264;19.884;2024-02-23T09:45:53;435.70;1715.20
55329;DHT22;41205;44.264;19.884;2024-02-23T09:48:19;436.00;1740.80
55329;DHT22;41205;44.264;19.884;2024-02-23T09:50:47;435.90;1766.40
55329;DHT22;41205;44.264;19.884;2024-02-23T09:53:13;436.00;1715.20
55329;DHT22;41205;44.264;19.884;2024-02-23T09:55:39;436.10;1689.60
55329;DHT22;41205;44.264;19.884;2024-02-23T09:58:06;436.10;1689.60
55329;DHT22;41205;44.264;19.884;2024-02-23T10:00:36;460.80;1715.20
55329;DHT22;41205;44.264;19.884;2024-02-23T10:03:04;460.90;1689.60
55329;DHT22;41205;44.264;19.884;2024-02-23T10:05:30;461.10;1689.60
55329;DHT22;41205;44.264;19.884;2024-02-23T10:07:59;461.10;1689.60
55329;DHT22;41205;44.264;19.884;2024-02-23T10:10:29;461.00;1689.60
55329;DHT22;41205;44.264;19.884;2024-02-23T10:12:57;461.10;1664.00
55329;DHT22;41205;44.264;19.884;2024-02-23T10:15:23;461.20;1689.60
55329;DHT22;41205;44.264;19.884;2024-02-23T10:17:49;461.20;1664.00
55329;DHT22;41205;44.264;19.884;2024-02-23T10:20:14;461.20;1689.60
55329;DHT22;41205;44.264;19.884;2024-02-23T10:22:40;461.00;1689.60
55329;DHT22;41205;44.264;19.884;2024-02-23T10:25:06;461.00;1638.40
55329;DHT22;41205;44.264;19.884;2024-02-23T10:27:32;461.20;1664.00
55329;DHT22;41205;44.264;19.884;2024-02-23T10:29:58;461.20;1664.00
55329;DHT22;41205;44.264;19.884;2024-02-23T10:32:25;461.30;1638.40
55329;DHT22;41205;44.264;19.884;2024-02-23T10:34:55;461.00;1638.40
55329;DHT22;41205;44.264;19.884;2024-02-23T10:37:25;461.20;1689.60
55329;DHT22;41205;44.264;19.884;2024-02-23T10:39:57;461.20;1638.40
55329;DHT22;41205;44.264;19.884;2024-02-23T10:42:23;461.10;1664.00
55329;DHT22;41205;44.264;19.884;2024-02-23T10:44:51;461.20;1689.60
55329;DHT22;41205;44.264;19.884;2024-02-23T10:47:20;461.10;1664.00
55329;DHT22;41205;44.264;19.884;2024-02-23T10:49:47;461.10;1638.40
55329;DHT22;41205;44.264;19.884;2024-02-23T10:52:13;461.30;1689.60
55329;DHT22;41205;44.264;19.884;2024-02-23T10:54:40;461.40;1664.00
55329;DHT22;41205;44.264;19.884;2024-02-23T10:57:07;461.30;1612.80
55329;DHT22;41205;44.264;19.884;2024-02-23T10:59:33;461.30;1612.80
55329;DHT22;41205;44.264;19.884;2024-02-23T11:02:00;461.10;1612.80
55329;DHT22;41205;44.264;19.884;2024-02-23T11:04:27;461.20;1612.80
55329;DHT22;41205;44.264;19.884;2024-02-23T11:06:56;461.10;1638.40
55329;DHT22;41205;44.264;19.884;2024-02-23T11:09:31;461.00;1664.00
55329;DHT22;41205;44.264;19.884;2024-02-23T11:11:58;460.90;1612.80
55329;DHT22;41205;44.264;19.884;2024-02-23T11:14:34;461.20;1612.80
55329;DHT22;41205;44.264;19.884;2024-02-23T11:17:00;461.20;1612.80
55329;DHT22;41205;44.264;19.884;2024-02-23T11:19:37;461.20;1612.80
55329;DHT22;41205;44.264;19.884;2024-02-23T11:22:03;461.50;1612.80
55329;DHT22;41205;44.264;19.884;2024-02-23T11:24:30;461.50;1612.80
55329;DHT22;41205;44.264;19.884;2024-02-23T11:26:57;461.50;1587.20
55329;DHT22;41205;44.264;19.884;2024-02-23T11:29:31;461.50;1612.80
55329;DHT22;41205;44.264;19.884;2024-02-23T11:31:58;461.50;1612.80
55329;DHT22;41205;44.264;19.884;2024-02-23T11:34:29;461.50;1587.20
55329;DHT22;41205;44.264;19.884;2024-02-23T11:36:55;461.50;1612.80
55329;DHT22;41205;44.264;19.884;2024-02-23T11:39:22;461.50;1612.80
55329;DHT22;41205;44.264;19.884;2024-02-23T11:41:49;486.40;1561.60
55329;DHT22;41205;44.264;19.884;2024-02-23T11:44:15;486.50;1587.20
55329;DHT22;41205;44.264;19.884;2024-02-23T11:46:43;486.70;1561.60
55329;DHT22;41205;44.264;19.884;2024-02-23T11:49:09;486.60;1561.60
55329;DHT22;41205;44.264;19.884;2024-02-23T11:51:35;486.60;1561.60
55329;DHT22;41205;44.264;19.884;2024-02-23T11:54:01;486.70;1561.60
55329;DHT22;41205;44.264;19.884;2024-02-23T11:56:27;486.60;1561.60
55329;DHT22;41205;44.264;19.884;2024-02-23T11:58:54;486.60;1561.60
55329;DHT22;41205;44.264;19.884;2024-02-23T12:01:21;486.60;1536.00
55329;DHT22;41205;44.264;19.884;2024-02-23T12:03:46;486.40;1536.00
55329;DHT22;41205;44.264;19.884;2024-02-23T12:06:14;486.40;1587.20
55329;DHT22;41205;44.264;19.884;2024-02-23T12:08:41;486.40;1587.20
55329;DHT22;41205;44.264;19.884;2024-02-23T12:11:08;486.40;1561.60
55329;DHT22;41205;44.264;19.884;2024-02-23T12:13:37;486.40;1561.60
55329;DHT22;41205;44.264;19.884;2024-02-23T12:16:03;486.50;1536.00
55329;DHT22;41205;44.264;19.884;2024-02-23T12:18:29;486.50;1536.00
55329;DHT22;41205;44.264;19.884;2024-02-23T12:21:15;486.40;1561.60
55329;DHT22;41205;44.264;19.884;2024-02-23T12:23:45;486.40;1536.00
55329;DHT22;41205;44.264;19.884;2024-02-23T12:26:14;486.50;1561.60
55329;DHT22;41205;44.264;19.884;2024-02-23T12:28:40;486.60;1536.00
55329;DHT22;41205;44.264;19.884;2024-02-23T12:31:07;486.60;1561.60
55329;DHT22;41205;44.264;19.884;2024-02-23T12:33:34;486.40;1587.20
55329;DHT22;41205;44.264;19.884;2024-02-23T12:36:01;486.50;1536.00
55329;DHT22;41205;44.264;19.884;2024-02-23T12:38:27;486.40;1561.60
55329;DHT22;41205;44.264;19.884;2024-02-23T12:40:53;486.40;1561.60
55329;DHT22;41205;44.264;19.884;2024-02-23T12:43:19;461.70;1561.60
55329;DHT22;41205;44.264;19.884;2024-02-23T12:45:50;461.70;1561.60
55329;DHT22;41205;44.264;19.884;2024-02-23T12:48:17;461.70;1561.60
55329;DHT22;41205;44.264;19.884;2024-02-23T12:50:43;461.70;1561.60
55329;DHT22;41205;44.264;19.884;2024-02-23T12:55:57;486.40;1561.60
55329;DHT22;41205;44.264;19.884;2024-02-23T12:58:22;486.50;1561.60
55329;DHT22;41205;44.264;19.884;2024-02-23T13:00:48;486.80;1536.00
55329;DHT22;41205;44.264;19.884;2024-02-23T13:03:14;486.90;1510.40
55329;DHT22;41205;44.264;19.884;2024-02-23T13:05:40;486.90;1536.00
55329;DHT22;41205;44.264;19.884;2024-02-23T13:08:05;486.80;1510.40
55329;DHT22;41205;44.264;19.884;2024-02-23T13:10:32;486.80;1536.00
55329;DHT22;41205;44.264;19.884;2024-02-23T13:12:57;486.70;1536.00
55329;DHT22;41205;44.264;19.884;2024-02-23T13:15:23;486.70;1536.00
55329;DHT22;41205;44.264;19.884;2024-02-23T13:17:49;486.80;1536.00
55329;DHT22;41205;44.264;19.884;2024-02-23T13:20:15;486.70;1510.40
55329;DHT22;41205;44.264;19.884;2024-02-23T13:22:40;486.70;1536.00
55329;DHT22;41205;44.264;19.884;2024-02-23T13:25:06;486.70;1536.00
55329;DHT22;41205;44.264;19.884;2024-02-23T13:27:32;486.70;1510.40
55329;DHT22;41205;44.264;19.884;2024-02-23T13:29:58;486.60;1536.00
55329;DHT22;41205;44.264;19.884;2024-02-23T13:32:24;486.60;1587.20
55329;DHT22;41205;44.264;19.884;2024-02-23T13:34:49;486.50;1561.60
55329;DHT22;41205;44.264;19.884;2024-02-23T13:37:18;486.60;1561.60
55329;DHT22;41205;44.264;19.884;2024-02-23T13:39:44;486.60;1561.60
55329;DHT22;41205;44.264;19.884;2024-02-23T13:42:09;486.40;1536.00
55329;DHT22;41205;44.264;19.884;2024-02-23T13:44:36;461.70;1561.60
55329;DHT22;41205;44.264;19.884;2024-02-23T13:47:02;461.50;1587.20
55329;DHT22;41205;44.264;19.884;2024-02-23T13:49:28;461.30;1587.20
55329;DHT22;41205;44.264;19.884;2024-02-23T13:51:54;461.20;1587.20
55329;DHT22;41205;44.264;19.884;2024-02-23T13:54:20;461.10;1612.80
55329;DHT22;41205;44.264;19.884;2024-02-23T13:56:46;461.10;1612.80
55329;DHT22;41205;44.264;19.884;2024-02-23T13:59:12;461.10;1587.20
55329;DHT22;41205;44.264;19.884;2024-02-23T14:01:38;461.10;1612.80
55329;DHT22;41205;44.264;19.884;2024-02-23T14:04:07;461.20;1612.80
55329;DHT22;41205;44.264;19.884;2024-02-23T14:06:33;461.20;1587.20
55329;DHT22;41205;44.264;19.884;2024-02-23T14:08:59;461.20;1587.20
55329;DHT22;41205;44.264;19.884;2024-02-23T14:11:25;461.20;1612.80
55329;DHT22;41205;44.264;19.884;2024-02-23T14:13:51;461.00;1612.80
55329;DHT22;41205;44.264;19.884;2024-02-23T14:16:17;460.90;1638.40
55329;DHT22;41205;44.264;19.884;2024-02-23T14:18:42;460.90;1638.40
55329;DHT22;41205;44.264;19.884;2024-02-23T14:21:10;460.90;1638.40
55329;DHT22;41205;44.264;19.884;2024-02-23T14:23:36;460.90;1664.00
55329;DHT22;41205;44.264;19.884;2024-02-23T14:26:03;460.90;1638.40
55329;DHT22;41205;44.264;19.884;2024-02-23T14:28:29;461.00;1612.80
55329;DHT22;41205;44.264;19.884;2024-02-23T14:30:55;461.00;1612.80
55329;DHT22;41205;44.264;19.884;2024-02-23T14:33:21;460.90;1612.80
55329;DHT22;41205;44.264;19.884;2024-02-23T14:35:47;460.90;1587.20
55329;DHT22;41205;44.264;19.884;2024-02-23T14:38:15;460.90;1612.80
55329;DHT22;41205;44.264;19.884;2024-02-23T14:40:41;460.80;1612.80
55329;DHT22;41205;44.264;19.884;2024-02-23T14:43:07;460.80;1638.40
55329;DHT22;41205;44.264;19.884;2024-02-23T14:45:33;436.10;1612.80
55329;DHT22;41205;44.264;19.884;2024-02-23T14:47:59;436.10;1612.80
55329;DHT22;41205;44.264;19.884;2024-02-23T14:50:24;436.10;1612.80
55329;DHT22;41205;44.264;19.884;2024-02-23T14:52:51;436.10;1612.80
55329;DHT22;41205;44.264;19.884;2024-02-23T14:55:16;436.00;1638.40
55329;DHT22;41205;44.264;19.884;2024-02-23T14:57:43;435.90;1638.40
55329;DHT22;41205;44.264;19.884;2024-02-23T15:00:09;435.90;1612.80
55329;DHT22;41205;44.264;19.884;2024-02-23T15:02:35;435.90;1638.40
55329;DHT22;41205;44.264;19.884;2024-02-23T15:05:01;435.90;1638.40
55329;DHT22;41205;44.264;19.884;2024-02-23T15:07:27;435.90;1664.00
55329;DHT22;41205;44.264;19.884;2024-02-23T15:09:53;435.70;1638.40
55329;DHT22;41205;44.264;19.884;2024-02-23T15:12:19;435.70;1638.40
55329;DHT22;41205;44.264;19.884;2024-02-23T15:14:47;435.70;1638.40